Time;durP1;ratioP1;P1;durP2;ratioP2;P2;SDS_P1;SDS_P2;PMS_P1;PMS_P2;Temp;Humidity;BMP_temperature;BMP_pressure;BME280_temperature;BME280_humidity;BME280_pressure;Samples;Min_cycle;Max_cycle;Signal;HPM_P1;HPM_P2
2023/11/03 00:01:07;;;;;;;5.35;4.57;;;;;;;;;;5048975;28;20049;-83
2023/11/03 00:03:37;;;;;;;5.78;4.55;;;;;;;;;;5062700;28;20056;-83
2023/11/03 00:06:05;;;;;;;8.02;5.35;;;;;;;;;;5053985;28;20063;-83
2023/11/03 00:08:33;;;;;;;5.20;3.72;;;;;;;;;;5034693;28;20071;-83
2023/11/03 00:11:04;;;;;;;4.45;3.92;;;;;;;;;;5039564;28;20059;-83
2023/11/03 00:13:34;;;;;;;4.63;4.13;;;;;;;;;;5030971;28;20059;-83
2023/11/03 00:16:02;;;;;;;4.63;3.67;;;;;;;;;;5051036;28;20103;-83
2023/11/03 00:18:30;;;;;;;4.68;3.63;;;;;;;;;;5035468;28;20501;-83
2023/11/03 00:21:01;;;;;;;5.07;3.38;;;;;;;;;;5028980;28;20174;-83
2023/11/03 00:23:31;;;;;;;5.65;4.63;;;;;;;;;;5048485;28;20048;-83
2023/11/03 00:26:01;;;;;;;4.90;3.22;;;;;;;;;;5054266;28;20049;-83
2023/11/03 00:28:30;;;;;;;4.80;4.05;;;;;;;;;;5053070;28;20059;-83
2023/11/03 00:31:00;;;;;;;6.70;4.32;;;;;;;;;;5036075;28;20048;-83
2023/11/03 00:33:27;;;;;;;3.78;3.33;;;;;;;;;;5050318;28;20056;-83
2023/11/03 00:35:54;;;;;;;4.35;3.92;;;;;;;;;;5037292;28;20052;-83
2023/11/03 00:38:22;;;;;;;5.85;5.25;;;;;;;;;;5045471;28;20045;-83
2023/11/03 00:40:54;;;;;;;4.90;3.65;;;;;;;;;;5040878;28;20041;-83
2023/11/03 00:43:24;;;;;;;7.15;4.70;;;;;;;;;;5036132;28;20044;-83
2023/11/03 00:45:52;;;;;;;5.05;4.55;;;;;;;;;;5049617;28;20040;-83
2023/11/03 00:48:20;;;;;;;8.05;4.60;;;;;;;;;;5067700;28;20115;-83
2023/11/03 00:50:48;;;;;;;5.40;4.10;;;;;;;;;;5047933;28;20036;-83
2023/11/03 00:53:15;;;;;;;8.70;3.97;;;;;;;;;;5044452;28;20059;-83
2023/11/03 00:55:43;;;;;;;3.95;3.28;;;;;;;;;;5050395;28;20060;-83
2023/11/03 00:58:11;;;;;;;4.55;3.15;;;;;;;;;;5042951;28;20056;-83
2023/11/03 01:00:41;;;;;;;4.75;3.40;;;;;;;;;;5051975;28;20423;-83
2023/11/03 01:03:10;;;;;;;5.53;3.47;;;;;;;;;;5048438;28;20063;-83
2023/11/03 01:05:37;;;;;;;4.75;2.85;;;;;;;;;;5058669;28;20045;-83
2023/11/03 01:08:05;;;;;;;4.75;3.90;;;;;;;;;;5052059;28;20056;-83
2023/11/03 01:10:34;;;;;;;3.95;3.42;;;;;;;;;;5031949;28;20048;-83
2023/11/03 01:13:09;;;;;;;6.00;4.07;;;;;;;;;;5035626;28;20044;-83
2023/11/03 01:15:37;;;;;;;4.05;3.35;;;;;;;;;;5034502;28;20056;-83
2023/11/03 01:18:05;;;;;;;4.15;3.45;;;;;;;;;;5030513;28;20052;-83
2023/11/03 01:20:35;;;;;;;4.22;3.80;;;;;;;;;;5061632;23;20044;-82
2023/11/03 01:23:03;;;;;;;5.05;4.28;;;;;;;;;;5074901;28;20064;-82
2023/11/03 01:25:31;;;;;;;4.38;3.60;;;;;;;;;;5061873;28;20079;-82
2023/11/03 01:27:59;;;;;;;5.38;3.47;;;;;;;;;;5078135;28;20041;-82
2023/11/03 01:30:28;;;;;;;4.50;3.40;;;;;;;;;;5063997;28;20060;-82
2023/11/03 01:32:58;;;;;;;5.93;3.15;;;;;;;;;;5063622;28;20421;-82
2023/11/03 01:35:25;;;;;;;4.53;3.08;;;;;;;;;;5066584;28;20243;-82
2023/11/03 01:37:53;;;;;;;10.45;4.15;;;;;;;;;;5069660;28;20052;-82
2023/11/03 01:40:22;;;;;;;4.22;3.80;;;;;;;;;;5078068;28;20047;-82
2023/11/03 01:42:52;;;;;;;6.57;2.97;;;;;;;;;;5079960;28;20047;-82
2023/11/03 01:45:21;;;;;;;6.53;3.05;;;;;;;;;;5074864;28;20055;-82
2023/11/03 01:47:52;;;;;;;4.15;3.30;;;;;;;;;;5075492;28;20046;-82
2023/11/03 01:50:23;;;;;;;3.83;2.83;;;;;;;;;;5081069;28;20039;-82
2023/11/03 01:52:50;;;;;;;3.88;2.92;;;;;;;;;;5093143;28;20394;-82
2023/11/03 01:55:17;;;;;;;3.35;3.05;;;;;;;;;;5078863;28;20060;-82
2023/11/03 01:57:47;;;;;;;3.35;2.78;;;;;;;;;;5086726;28;20044;-82
2023/11/03 02:00:16;;;;;;;4.22;2.92;;;;;;;;;;5060733;28;20057;-82
2023/11/03 02:02:46;;;;;;;4.97;4.10;;;;;;;;;;5062246;28;20406;-82
2023/11/03 02:05:15;;;;;;;4.20;2.80;;;;;;;;;;5063389;28;20045;-82
2023/11/03 02:07:42;;;;;;;4.32;2.90;;;;;;;;;;5064322;28;20071;-82
2023/11/03 02:10:12;;;;;;;4.13;2.90;;;;;;;;;;5080023;28;20057;-82
2023/11/03 02:12:39;;;;;;;4.47;2.65;;;;;;;;;;5057021;28;20052;-82
2023/11/03 02:15:07;;;;;;;3.88;2.40;;;;;;;;;;5060424;28;20060;-82
2023/11/03 02:17:35;;;;;;;4.97;2.13;;;;;;;;;;5078695;28;20045;-82
2023/11/03 02:20:06;;;;;;;2.22;2.03;;;;;;;;;;5063974;28;20056;-82
2023/11/03 02:22:38;;;;;;;3.65;2.30;;;;;;;;;;5081326;28;20045;-82
2023/11/03 02:25:08;;;;;;;5.22;2.03;;;;;;;;;;5060118;28;20049;-82
2023/11/03 02:27:37;;;;;;;2.17;1.83;;;;;;;;;;5063363;28;20059;-82
2023/11/03 02:30:06;;;;;;;4.13;1.88;;;;;;;;;;5064307;28;20053;-83
2023/11/03 02:32:35;;;;;;;1.80;1.20;;;;;;;;;;5062394;28;20529;-82
2023/11/03 02:35:03;;;;;;;2.97;1.50;;;;;;;;;;5044257;28;20048;-83
2023/11/03 02:37:34;;;;;;;1.55;1.05;;;;;;;;;;5078727;28;20402;-82
2023/11/03 02:40:10;;;;;;;4.13;1.45;;;;;;;;;;5056480;28;20052;-82
2023/11/03 02:42:37;;;;;;;3.13;1.60;;;;;;;;;;5079978;28;20044;-82
2023/11/03 02:45:06;;;;;;;3.30;1.13;;;;;;;;;;5075043;28;20071;-82
2023/11/03 02:47:33;;;;;;;2.17;1.30;;;;;;;;;;5062537;28;20052;-82
2023/11/03 02:50:03;;;;;;;2.97;1.15;;;;;;;;;;5079864;28;20056;-82
2023/11/03 02:52:30;;;;;;;5.80;1.92;;;;;;;;;;5078892;28;20041;-82
2023/11/03 02:55:00;;;;;;;1.63;1.10;;;;;;;;;;5056973;28;20068;-82
2023/11/03 02:57:29;;;;;;;3.83;1.13;;;;;;;;;;5063062;28;20430;-82
2023/11/03 02:59:56;;;;;;;2.95;1.33;;;;;;;;;;5080471;28;20053;-82
2023/11/03 03:02:24;;;;;;;2.78;1.55;;;;;;;;;;5080431;28;20044;-82
2023/11/03 03:04:51;;;;;;;2.00;1.30;;;;;;;;;;5061224;28;20052;-83
2023/11/03 03:07:18;;;;;;;2.10;1.17;;;;;;;;;;5053981;28;20415;-82
2023/11/03 03:09:46;;;;;;;4.35;1.95;;;;;;;;;;5059495;28;20056;-83
2023/11/03 03:12:13;;;;;;;4.25;1.00;;;;;;;;;;5079001;28;20059;-82
2023/11/03 03:14:44;;;;;;;2.75;1.23;;;;;;;;;;5062837;28;20049;-82
2023/11/03 03:17:11;;;;;;;3.47;1.35;;;;;;;;;;5070367;28;20056;-82
2023/11/03 03:19:46;;;;;;;2.15;1.20;;;;;;;;;;5061200;28;20051;-82
2023/11/03 03:22:17;;;;;;;4.68;1.67;;;;;;;;;;5075419;28;20041;-82
2023/11/03 03:24:44;;;;;;;7.18;1.48;;;;;;;;;;5072641;28;20051;-82
2023/11/03 03:27:11;;;;;;;2.28;1.25;;;;;;;;;;5072272;28;20048;-82
2023/11/03 03:29:39;;;;;;;1.50;1.10;;;;;;;;;;5070838;28;20044;-82
2023/11/03 03:32:08;;;;;;;1.88;1.15;;;;;;;;;;5078325;28;20525;-82
2023/11/03 03:34:35;;;;;;;3.50;1.63;;;;;;;;;;5061432;28;20059;-82
2023/11/03 03:37:03;;;;;;;2.35;1.35;;;;;;;;;;5074021;28;20052;-82
2023/11/03 03:39:30;;;;;;;2.40;1.48;;;;;;;;;;5078787;28;20056;-82
2023/11/03 03:41:58;;;;;;;2.63;1.42;;;;;;;;;;5054883;28;20045;-82
2023/11/03 03:44:25;;;;;;;3.53;1.17;;;;;;;;;;5061977;28;20044;-82
2023/11/03 03:46:52;;;;;;;3.30;1.35;;;;;;;;;;5077425;28;20044;-82
2023/11/03 03:49:21;;;;;;;2.72;0.93;;;;;;;;;;5077219;28;20047;-82
2023/11/03 03:51:50;;;;;;;6.95;1.33;;;;;;;;;;5057212;28;20049;-82
2023/11/03 03:54:18;;;;;;;3.70;1.65;;;;;;;;;;5078865;28;20049;-82
2023/11/03 03:56:45;;;;;;;4.88;1.25;;;;;;;;;;5049577;28;20057;-82
2023/11/03 03:59:13;;;;;;;5.70;1.10;;;;;;;;;;5058473;28;20056;-82
2023/11/03 04:01:42;;;;;;;3.92;1.05;;;;;;;;;;5059589;28;20087;-82
2023/11/03 04:04:09;;;;;;;6.18;2.40;;;;;;;;;;5060737;28;20040;-82
2023/11/03 04:06:38;;;;;;;1.38;1.10;;;;;;;;;;5074461;28;20063;-82
2023/11/03 04:09:05;;;;;;;6.45;1.30;;;;;;;;;;5062393;28;20413;-82
2023/11/03 04:11:33;;;;;;;4.05;2.00;;;;;;;;;;5059438;28;20044;-82
2023/11/03 04:14:00;;;;;;;5.75;1.63;;;;;;;;;;5076261;28;20064;-82
2023/11/03 04:16:33;;;;;;;1.80;1.08;;;;;;;;;;5062910;28;20048;-83
2023/11/03 04:19:03;;;;;;;2.15;1.23;;;;;;;;;;5068671;28;20063;-82
2023/11/03 04:21:31;;;;;;;2.85;1.50;;;;;;;;;;5055255;28;20055;-82
2023/11/03 04:23:59;;;;;;;4.50;1.60;;;;;;;;;;5057592;28;20586;-82
2023/11/03 04:26:26;;;;;;;4.30;1.80;;;;;;;;;;5055783;28;20044;-82
2023/11/03 04:28:54;;;;;;;2.72;1.63;;;;;;;;;;5053126;28;20056;-82
2023/11/03 04:31:23;;;;;;;1.40;0.88;;;;;;;;;;5072644;28;20051;-82
2023/11/03 04:33:51;;;;;;;1.65;0.95;;;;;;;;;;5061538;28;20048;-82
2023/11/03 04:36:20;;;;;;;3.80;1.30;;;;;;;;;;5076482;28;20049;-82
2023/11/03 04:38:48;;;;;;;6.72;1.98;;;;;;;;;;5061760;28;20056;-82
2023/11/03 04:41:17;;;;;;;2.45;1.58;;;;;;;;;;5078015;28;20052;-82
2023/11/03 04:43:45;;;;;;;4.18;1.60;;;;;;;;;;5059139;28;20075;-82
2023/11/03 04:46:13;;;;;;;1.70;1.00;;;;;;;;;;5076636;28;20055;-82
2023/11/03 04:48:40;;;;;;;1.95;1.13;;;;;;;;;;5056715;28;20051;-82
2023/11/03 04:51:08;;;;;;;5.25;1.15;;;;;;;;;;5069327;28;20049;-82
2023/11/03 04:53:38;;;;;;;2.55;1.13;;;;;;;;;;5073485;28;20048;-82
2023/11/03 04:56:06;;;;;;;2.78;1.40;;;;;;;;;;5054470;28;20063;-82
2023/11/03 04:58:37;;;;;;;2.22;1.27;;;;;;;;;;5058953;28;20056;-82
2023/11/03 05:01:05;;;;;;;2.13;1.05;;;;;;;;;;5072587;28;20060;-82
2023/11/03 05:03:32;;;;;;;5.45;2.00;;;;;;;;;;5077053;28;20042;-82
2023/11/03 05:06:00;;;;;;;4.57;1.83;;;;;;;;;;5065844;28;20061;-82
2023/11/03 05:08:27;;;;;;;4.05;1.15;;;;;;;;;;5071122;28;20071;-82
2023/11/03 05:10:57;;;;;;;4.40;1.70;;;;;;;;;;5078141;28;20041;-83
2023/11/03 05:13:24;;;;;;;1.52;1.17;;;;;;;;;;5060194;28;20044;-82
2023/11/03 05:15:55;;;;;;;6.07;1.42;;;;;;;;;;5061314;28;20052;-82
2023/11/03 05:18:22;;;;;;;6.10;1.30;;;;;;;;;;5079660;28;20060;-82
2023/11/03 05:20:52;;;;;;;3.45;1.23;;;;;;;;;;5060518;28;20067;-83
2023/11/03 05:23:21;;;;;;;3.33;1.23;;;;;;;;;;5074404;28;20433;-82
2023/11/03 05:25:52;;;;;;;2.40;1.30;;;;;;;;;;5078962;28;20417;-82
2023/11/03 05:28:19;;;;;;;2.92;2.03;;;;;;;;;;5078611;28;20071;-82
2023/11/03 05:30:49;;;;;;;2.38;1.38;;;;;;;;;;5075397;28;20052;-82
2023/11/03 05:33:20;;;;;;;9.13;1.75;;;;;;;;;;5059899;28;20048;-82
2023/11/03 05:35:49;;;;;;;4.25;1.30;;;;;;;;;;5060387;28;20044;-82
2023/11/03 05:38:17;;;;;;;3.03;2.38;;;;;;;;;;5057472;28;20044;-83
2023/11/03 05:40:46;;;;;;;3.17;1.60;;;;;;;;;;5060285;28;20059;-82
2023/11/03 05:43:14;;;;;;;3.33;1.30;;;;;;;;;;5077409;28;20067;-83
2023/11/03 05:45:46;;;;;;;2.88;1.30;;;;;;;;;;5064017;28;20048;-84
2023/11/03 05:48:13;;;;;;;6.13;1.58;;;;;;;;;;5063117;28;20064;-83
2023/11/03 05:50:42;;;;;;;9.95;1.92;;;;;;;;;;5076747;28;20421;-83
2023/11/03 05:53:12;;;;;;;3.55;1.40;;;;;;;;;;5079364;28;20057;-83
2023/11/03 05:55:42;;;;;;;3.25;1.58;;;;;;;;;;5075587;28;20045;-83
2023/11/03 05:58:10;;;;;;;3.97;1.60;;;;;;;;;;5056405;28;20048;-83
2023/11/03 06:00:37;;;;;;;4.68;1.67;;;;;;;;;;5078510;28;20048;-80
2023/11/03 06:03:08;;;;;;;5.75;1.15;;;;;;;;;;5078362;28;20044;-81
2023/11/03 06:05:35;;;;;;;2.33;1.13;;;;;;;;;;5056911;28;20052;-82
2023/11/03 06:08:04;;;;;;;6.18;1.70;;;;;;;;;;5039453;28;20049;-81
2023/11/03 06:10:32;;;;;;;1.83;1.48;;;;;;;;;;5071412;28;20044;-82
2023/11/03 06:12:59;;;;;;;2.55;1.73;;;;;;;;;;5057263;28;20095;-82
2023/11/03 06:15:28;;;;;;;4.95;1.73;;;;;;;;;;5058288;28;20526;-82
2023/11/03 06:17:56;;;;;;;1.60;1.17;;;;;;;;;;5054564;28;20051;-82
2023/11/03 06:20:23;;;;;;;3.72;1.25;;;;;;;;;;5058660;28;20044;-82
2023/11/03 06:22:50;;;;;;;3.92;1.10;;;;;;;;;;5073800;28;20064;-82
2023/11/03 06:25:21;;;;;;;4.32;1.73;;;;;;;;;;5077044;28;20048;-82
2023/11/03 06:27:51;;;;;;;4.10;1.27;;;;;;;;;;5044120;28;20060;-82
2023/11/03 06:30:19;;;;;;;1.92;1.58;;;;;;;;;;5058132;28;20414;-82
2023/11/03 06:32:50;;;;;;;7.10;1.65;;;;;;;;;;5072872;28;20044;-82
2023/11/03 06:35:17;;;;;;;4.70;1.70;;;;;;;;;;5048096;28;20615;-82
2023/11/03 06:37:44;;;;;;;2.45;1.20;;;;;;;;;;5070757;28;20044;-81
2023/11/03 06:40:11;;;;;;;3.22;1.33;;;;;;;;;;5058177;28;20055;-82
2023/11/03 06:42:41;;;;;;;4.10;1.45;;;;;;;;;;5069827;28;20067;-81
2023/11/03 06:45:09;;;;;;;2.58;1.58;;;;;;;;;;5056309;28;20053;-82
2023/11/03 06:47:37;;;;;;;4.22;1.50;;;;;;;;;;5075883;28;20048;-82
2023/11/03 06:50:05;;;;;;;2.63;1.10;;;;;;;;;;5038803;28;20048;-82
2023/11/03 06:52:32;;;;;;;2.58;1.80;;;;;;;;;;5053893;28;20367;-81
2023/11/03 06:55:03;;;;;;;5.53;1.33;;;;;;;;;;5055781;28;20533;-82
2023/11/03 06:57:30;;;;;;;4.03;1.23;;;;;;;;;;5075595;28;20056;-82
2023/11/03 07:00:02;;;;;;;1.50;1.02;;;;;;;;;;5072853;28;20766;-82
2023/11/03 07:02:31;;;;;;;2.13;1.30;;;;;;;;;;5073183;28;20707;-82
2023/11/03 07:05:00;;;;;;;5.20;2.83;;;;;;;;;;5070721;28;20053;-82
2023/11/03 07:07:28;;;;;;;9.68;1.92;;;;;;;;;;5075309;28;20048;-82
2023/11/03 07:09:59;;;;;;;2.95;1.20;;;;;;;;;;5071897;28;20036;-82
2023/11/03 07:12:29;;;;;;;2.70;1.25;;;;;;;;;;5072542;28;20052;-82
2023/11/03 07:14:59;;;;;;;2.58;1.30;;;;;;;;;;5067887;28;20060;-82
2023/11/03 07:17:30;;;;;;;4.63;1.63;;;;;;;;;;5087350;28;20485;-82
2023/11/03 07:19:59;;;;;;;2.83;0.95;;;;;;;;;;5071376;28;20048;-82
2023/11/03 07:22:29;;;;;;;2.15;1.30;;;;;;;;;;5070749;28;20099;-82
2023/11/03 07:24:58;;;;;;;8.90;2.95;;;;;;;;;;5049318;28;20053;-82
2023/11/03 07:27:26;;;;;;;3.28;1.30;;;;;;;;;;5071660;28;20675;-81
2023/11/03 07:30:04;;;;;;;2.88;1.33;;;;;;;;;;5070108;28;20052;-82
2023/11/03 07:32:33;;;;;;;2.50;1.40;;;;;;;;;;4970046;28;20053;-81
2023/11/03 07:35:06;;;;;;;3.63;1.48;;;;;;;;;;4974613;28;20042;-84
2023/11/03 07:37:34;;;;;;;1.35;1.10;;;;;;;;;;4993651;28;20511;-83
2023/11/03 07:40:02;;;;;;;5.57;1.95;;;;;;;;;;4975771;28;20150;-83
2023/11/03 07:42:29;;;;;;;3.05;1.20;;;;;;;;;;4958092;28;20057;-83
2023/11/03 07:44:59;;;;;;;2.75;2.38;;;;;;;;;;4974024;28;20065;-84
2023/11/03 07:47:27;;;;;;;2.40;1.63;;;;;;;;;;4989061;28;20058;-83
2023/11/03 07:49:58;;;;;;;5.63;1.50;;;;;;;;;;4989763;28;20847;-83
2023/11/03 07:52:25;;;;;;;3.70;1.17;;;;;;;;;;4958635;28;20058;-83
2023/11/03 07:54:52;;;;;;;3.03;1.45;;;;;;;;;;4958942;28;20050;-83
2023/11/03 07:57:20;;;;;;;3.78;1.65;;;;;;;;;;4997411;28;20050;-83
2023/11/03 07:59:49;;;;;;;3.10;1.58;;;;;;;;;;4977820;28;20400;-84
2023/11/03 08:02:16;;;;;;;2.17;1.33;;;;;;;;;;4980759;28;20050;-83
2023/11/03 08:04:46;;;;;;;3.38;1.33;;;;;;;;;;4974593;28;20042;-83
2023/11/03 08:07:14;;;;;;;4.00;1.30;;;;;;;;;;4973385;28;20057;-84
2023/11/03 08:09:44;;;;;;;1.23;0.90;;;;;;;;;;4990045;28;20046;-83
2023/11/03 08:12:11;;;;;;;3.38;1.30;;;;;;;;;;4973317;28;20047;-83
2023/11/03 08:14:42;;;;;;;5.10;0.80;;;;;;;;;;4988894;28;20396;-84
2023/11/03 08:17:12;;;;;;;2.97;1.20;;;;;;;;;;4973493;28;20046;-83
2023/11/03 08:19:45;;;;;;;3.05;1.73;;;;;;;;;;4957547;28;20133;-84
2023/11/03 08:22:16;;;;;;;2.63;1.08;;;;;;;;;;4974700;28;20054;-84
2023/11/03 08:24:44;;;;;;;1.75;1.20;;;;;;;;;;4973383;28;20045;-84
2023/11/03 08:27:14;;;;;;;4.82;2.45;;;;;;;;;;4973057;28;20563;-84
2023/11/03 08:29:45;;;;;;;5.32;1.23;;;;;;;;;;4989572;28;20046;-84
2023/11/03 08:32:12;;;;;;;5.82;1.40;;;;;;;;;;4971237;28;20054;-84
2023/11/03 08:34:40;;;;;;;1.92;1.00;;;;;;;;;;4990803;28;20046;-84
2023/11/03 08:37:12;;;;;;;3.53;1.60;;;;;;;;;;4972742;28;20050;-83
2023/11/03 08:39:42;;;;;;;2.03;1.42;;;;;;;;;;4974113;28;20304;-83
2023/11/03 08:42:10;;;;;;;5.00;1.58;;;;;;;;;;4970782;28;20464;-84
2023/11/03 08:44:40;;;;;;;2.63;1.23;;;;;;;;;;4973915;28;20113;-84
2023/11/03 08:47:08;;;;;;;2.92;1.35;;;;;;;;;;4971553;28;20055;-83
2023/11/03 08:49:35;;;;;;;4.43;1.40;;;;;;;;;;4977141;28;20407;-84
2023/11/03 08:52:02;;;;;;;3.53;1.48;;;;;;;;;;4974007;28;20061;-84
2023/11/03 08:54:33;;;;;;;2.50;1.13;;;;;;;;;;4987676;28;20053;-84
2023/11/03 08:57:00;;;;;;;2.00;1.00;;;;;;;;;;4973079;28;20054;-84
2023/11/03 08:59:28;;;;;;;6.05;2.08;;;;;;;;;;4948858;28;20382;-84
2023/11/03 09:01:56;;;;;;;1.83;1.10;;;;;;;;;;4967436;28;20050;-83
2023/11/03 09:04:28;;;;;;;1.67;1.30;;;;;;;;;;4977195;28;20078;-83
2023/11/03 09:06:55;;;;;;;4.35;1.35;;;;;;;;;;4991883;28;20065;-83
2023/11/03 09:09:22;;;;;;;2.60;1.70;;;;;;;;;;4966317;28;20046;-83
2023/11/03 09:11:50;;;;;;;3.70;1.42;;;;;;;;;;4973568;28;20072;-83
2023/11/03 09:14:25;;;;;;;2.80;1.30;;;;;;;;;;4990665;28;20045;-83
2023/11/03 09:16:56;;;;;;;4.75;1.42;;;;;;;;;;4990736;28;20083;-84
2023/11/03 09:19:25;;;;;;;5.13;1.83;;;;;;;;;;4959171;28;20069;-83
2023/11/03 09:21:55;;;;;;;2.15;1.30;;;;;;;;;;4992927;28;20069;-84
2023/11/03 09:24:27;;;;;;;3.20;1.63;;;;;;;;;;4990556;28;20515;-83
2023/11/03 09:26:54;;;;;;;3.95;1.70;;;;;;;;;;4975551;28;20051;-84
2023/11/03 09:29:26;;;;;;;12.50;2.33;;;;;;;;;;4992673;28;20057;-83
2023/11/03 09:31:57;;;;;;;7.07;2.03;;;;;;;;;;4974393;28;20057;-83
2023/11/03 09:34:25;;;;;;;2.72;2.53;;;;;;;;;;4991287;28;20512;-84
2023/11/03 09:36:56;;;;;;;4.15;1.88;;;;;;;;;;4992416;28;20066;-84
2023/11/03 09:39:23;;;;;;;3.03;1.38;;;;;;;;;;4992206;28;20042;-83
2023/11/03 09:41:58;;;;;;;2.42;1.20;;;;;;;;;;4973527;28;20050;-83
2023/11/03 09:44:26;;;;;;;3.33;2.03;;;;;;;;;;4991828;28;21850;-83
2023/11/03 09:46:54;;;;;;;2.42;1.80;;;;;;;;;;4973916;28;20050;-83
2023/11/03 09:49:28;;;;;;;4.63;1.42;;;;;;;;;;4976581;28;20058;-83
2023/11/03 09:52:01;;;;;;;2.58;1.45;;;;;;;;;;4974712;28;20047;-84
2023/11/03 09:54:37;;;;;;;3.92;1.40;;;;;;;;;;4974574;28;20047;-83
2023/11/03 09:57:08;;;;;;;2.45;1.20;;;;;;;;;;4978136;28;20050;-83
2023/11/03 09:59:36;;;;;;;2.72;1.40;;;;;;;;;;4971998;28;20481;-83
2023/11/03 10:02:07;;;;;;;2.30;1.45;;;;;;;;;;4994089;28;20424;-84
2023/11/03 10:04:38;;;;;;;3.40;1.30;;;;;;;;;;4978901;28;20070;-84
2023/11/03 10:07:06;;;;;;;3.88;1.58;;;;;;;;;;4957655;28;20050;-84
2023/11/03 10:09:33;;;;;;;2.42;1.20;;;;;;;;;;4978615;28;20054;-82
2023/11/03 10:12:03;;;;;;;3.33;1.63;;;;;;;;;;4973598;28;20059;-82
2023/11/03 10:14:34;;;;;;;1.38;0.90;;;;;;;;;;4978969;28;20516;-83
2023/11/03 10:17:04;;;;;;;2.35;0.90;;;;;;;;;;4977709;28;20408;-83
2023/11/03 10:19:34;;;;;;;3.38;1.77;;;;;;;;;;4975745;28;20134;-82
2023/11/03 10:22:06;;;;;;;1.73;1.10;;;;;;;;;;4971163;28;20061;-83
2023/11/03 10:24:33;;;;;;;2.10;1.00;;;;;;;;;;4991304;28;20513;-83
2023/11/03 10:27:03;;;;;;;2.10;1.25;;;;;;;;;;4984375;28;20066;-83
2023/11/03 10:29:31;;;;;;;1.90;0.98;;;;;;;;;;4976132;28;20054;-83
2023/11/03 10:31:58;;;;;;;6.65;2.05;;;;;;;;;;4957786;28;20059;-83
2023/11/03 10:34:25;;;;;;;1.60;1.00;;;;;;;;;;4994109;28;20412;-83
2023/11/03 10:36:57;;;;;;;3.83;1.23;;;;;;;;;;4975061;28;20053;-83
2023/11/03 10:39:25;;;;;;;3.30;1.20;;;;;;;;;;4960074;28;20523;-83
2023/11/03 10:41:53;;;;;;;1.95;0.95;;;;;;;;;;4995379;28;20497;-83
2023/11/03 10:44:25;;;;;;;2.95;1.38;;;;;;;;;;4975590;28;20077;-83
2023/11/03 10:46:59;;;;;;;2.65;1.80;;;;;;;;;;4958949;28;20061;-82
2023/11/03 10:49:30;;;;;;;2.53;0.98;;;;;;;;;;4974926;28;20054;-82
2023/11/03 10:52:08;;;;;;;6.55;1.27;;;;;;;;;;4990742;28;20054;-83
2023/11/03 10:54:41;;;;;;;8.90;2.35;;;;;;;;;;4958485;28;20050;-82
2023/11/03 10:57:09;;;;;;;3.88;1.20;;;;;;;;;;4973753;28;20046;-82
2023/11/03 10:59:40;;;;;;;2.03;1.38;;;;;;;;;;4975239;28;20054;-83
2023/11/03 11:02:14;;;;;;;4.55;1.20;;;;;;;;;;4963448;28;20058;-83
2023/11/03 11:04:51;;;;;;;1.48;1.33;;;;;;;;;;4989640;28;20053;-83
2023/11/03 11:07:22;;;;;;;1.63;1.10;;;;;;;;;;4990060;28;20057;-83
2023/11/03 11:09:54;;;;;;;6.47;1.55;;;;;;;;;;4992083;28;20046;-83
2023/11/03 11:12:23;;;;;;;3.15;1.05;;;;;;;;;;4990766;28;20050;-84
2023/11/03 11:14:53;;;;;;;6.57;1.50;;;;;;;;;;4975361;28;20061;-83
2023/11/03 11:17:35;;;;;;;1.98;0.93;;;;;;;;;;4991060;28;20058;-83
2023/11/03 11:20:04;;;;;;;5.78;2.05;;;;;;;;;;4991587;28;20046;-84
2023/11/03 11:22:52;;;;;;;2.58;1.23;;;;;;;;;;4988695;28;20527;-84
2023/11/03 11:25:21;;;;;;;2.42;1.48;;;;;;;;;;4989814;28;20156;-84
2023/11/03 11:27:50;;;;;;;3.13;2.22;;;;;;;;;;4973963;28;20046;-83
2023/11/03 11:30:19;;;;;;;3.33;1.48;;;;;;;;;;4990600;28;20046;-83
2023/11/03 11:32:50;;;;;;;2.22;1.02;;;;;;;;;;4967237;28;20054;-84
2023/11/03 11:35:18;;;;;;;2.63;1.88;;;;;;;;;;4992196;28;20053;-84
2023/11/03 11:37:50;;;;;;;1.67;1.20;;;;;;;;;;4976570;28;20049;-83
2023/11/03 11:40:22;;;;;;;6.20;1.33;;;;;;;;;;4974761;28;20054;-83
2023/11/03 11:42:54;;;;;;;1.52;0.82;;;;;;;;;;4974118;28;20416;-83
2023/11/03 11:45:22;;;;;;;2.58;0.95;;;;;;;;;;4977497;28;20042;-83
2023/11/03 11:47:51;;;;;;;1.83;1.08;;;;;;;;;;4976815;28;20053;-84
2023/11/03 11:50:21;;;;;;;5.05;1.60;;;;;;;;;;4992804;28;20054;-83
2023/11/03 11:52:51;;;;;;;7.05;1.50;;;;;;;;;;4989467;28;20482;-83
2023/11/03 11:55:22;;;;;;;2.75;1.38;;;;;;;;;;4974267;28;20057;-83
2023/11/03 11:58:06;;;;;;;2.60;1.40;;;;;;;;;;4974803;28;20050;-84
2023/11/03 12:00:38;;;;;;;5.68;1.25;;;;;;;;;;4989911;28;20042;-83
2023/11/03 12:03:07;;;;;;;3.05;1.38;;;;;;;;;;4988925;28;20054;-84
2023/11/03 12:05:34;;;;;;;1.75;1.00;;;;;;;;;;4974304;28;20042;-84
2023/11/03 12:08:04;;;;;;;1.77;1.25;;;;;;;;;;4972545;28;20069;-84
2023/11/03 12:10:33;;;;;;;2.53;1.20;;;;;;;;;;4972691;28;20053;-84
2023/11/03 12:13:01;;;;;;;1.85;0.90;;;;;;;;;;4967940;28;20062;-83
2023/11/03 12:15:28;;;;;;;7.63;1.20;;;;;;;;;;4984595;28;20800;-84
2023/11/03 12:17:56;;;;;;;5.35;1.77;;;;;;;;;;4968862;28;20057;-83
2023/11/03 12:20:31;;;;;;;1.95;1.30;;;;;;;;;;4975260;28;21142;-82
2023/11/03 12:23:01;;;;;;;1.90;1.40;;;;;;;;;;4984594;28;20077;-82
2023/11/03 12:25:30;;;;;;;2.03;1.23;;;;;;;;;;4956895;28;20061;-82
2023/11/03 12:28:09;;;;;;;4.20;1.52;;;;;;;;;;4962936;28;20058;-83
2023/11/03 12:30:48;;;;;;;3.47;1.25;;;;;;;;;;4973527;28;20049;-83
2023/11/03 12:33:27;;;;;;;3.45;1.63;;;;;;;;;;4989806;28;20054;-83
2023/11/03 12:35:57;;;;;;;4.25;1.27;;;;;;;;;;4992446;28;20049;-82
2023/11/03 12:38:24;;;;;;;1.00;0.90;;;;;;;;;;4974610;28;20515;-82
2023/11/03 12:41:13;;;;;;;2.53;1.50;;;;;;;;;;4984557;28;20054;-82
2023/11/03 12:44:00;;;;;;;1.35;1.02;;;;;;;;;;4971718;28;20050;-82
2023/11/03 12:46:33;;;;;;;2.35;0.90;;;;;;;;;;4999512;28;20054;-82
2023/11/03 12:49:08;;;;;;;2.17;1.30;;;;;;;;;;4977859;28;20046;-82
2023/11/03 12:51:42;;;;;;;2.08;1.00;;;;;;;;;;4988762;28;20297;-83
2023/11/03 12:54:14;;;;;;;4.10;1.60;;;;;;;;;;4956661;28;20062;-82
2023/11/03 12:56:49;;;;;;;4.30;1.33;;;;;;;;;;4974869;28;20047;-82
2023/11/03 12:59:21;;;;;;;1.27;1.00;;;;;;;;;;4973781;28;20081;-82
2023/11/03 13:01:50;;;;;;;2.95;1.25;;;;;;;;;;4973735;28;20058;-82
2023/11/03 13:04:25;;;;;;;3.30;1.40;;;;;;;;;;4974256;28;20042;-82
2023/11/03 13:07:11;;;;;;;1.88;1.10;;;;;;;;;;4975049;28;20061;-82
2023/11/03 13:09:43;;;;;;;3.00;1.50;;;;;;;;;;4991213;28;20145;-82
2023/11/03 13:12:15;;;;;;;1.95;1.10;;;;;;;;;;4988301;28;20505;-83
2023/11/03 13:14:48;;;;;;;4.15;1.17;;;;;;;;;;4986364;28;20046;-83
2023/11/03 13:17:15;;;;;;;3.25;1.67;;;;;;;;;;4990206;28;20054;-83
2023/11/03 13:19:48;;;;;;;2.53;1.17;;;;;;;;;;4955419;28;20057;-83
2023/11/03 13:22:17;;;;;;;2.50;1.00;;;;;;;;;;4971975;28;20054;-83
2023/11/03 13:24:45;;;;;;;2.15;0.93;;;;;;;;;;4970720;28;20069;-83
2023/11/03 13:27:14;;;;;;;3.40;1.77;;;;;;;;;;4972538;28;20414;-83
2023/11/03 13:29:44;;;;;;;2.72;0.80;;;;;;;;;;4989665;28;20046;-82
2023/11/03 14:34:13;;;;;;;33.30;2.03;;;;;;;;;;4892990;28;20054;-83
2023/11/03 14:36:42;;;;;;;3.42;1.60;;;;;;;;;;4938024;28;20057;-83
2023/11/03 14:39:12;;;;;;;2.13;1.42;;;;;;;;;;4998324;28;20056;-83
2023/11/03 14:41:43;;;;;;;1.38;1.20;;;;;;;;;;5038120;28;20061;-83
2023/11/03 14:44:11;;;;;;;5.63;1.70;;;;;;;;;;5013267;28;20519;-82
2023/11/03 14:46:39;;;;;;;3.25;1.33;;;;;;;;;;5010235;28;20058;-82
2023/11/03 14:49:13;;;;;;;4.55;1.80;;;;;;;;;;5015674;28;20057;-82
2023/11/03 14:51:41;;;;;;;6.13;2.38;;;;;;;;;;5014626;28;20049;-82
2023/11/03 14:54:17;;;;;;;4.28;1.90;;;;;;;;;;5034205;28;20045;-83
2023/11/03 14:56:48;;;;;;;2.95;1.63;;;;;;;;;;5009488;28;20495;-83
2023/11/03 14:59:16;;;;;;;4.68;1.80;;;;;;;;;;5011945;28;20053;-82
2023/11/03 15:01:45;;;;;;;4.47;1.50;;;;;;;;;;5031199;28;20052;-83
2023/11/03 15:04:14;;;;;;;2.58;1.50;;;;;;;;;;5018086;28;20052;-83
2023/11/03 15:06:41;;;;;;;5.32;1.83;;;;;;;;;;5031974;28;20037;-83
2023/11/03 15:09:08;;;;;;;2.47;1.60;;;;;;;;;;5030962;28;20054;-83
2023/11/03 15:11:39;;;;;;;7.30;1.92;;;;;;;;;;5010205;28;20483;-82
2023/11/03 15:22:50;;;;;;;6.53;1.83;;;;;;;;;;4814884;29;20058;-83
2023/11/03 15:25:44;;;;;;;5.60;3.05;;;;;;;;;;4937635;28;20070;-82
2023/11/03 15:29:26;;;;;;;;;;;;;;;;;;;;;
2023/11/03 15:32:24;;;;;;;5.85;2.35;;;;;;;;;;5028871;28;20042;-83
2023/11/03 15:45:41;;;;;;;;;;;;;;;;;;;;;
2023/11/03 15:53:15;;;;;;;7.60;2.85;;;;;;;;;;5036364;28;20045;-83
2023/11/03 15:56:24;;;;;;;;;;;;;;;;;;;;;
2023/11/03 16:43:30;;;;;;;7.05;5.47;;;;;;;;;;4380230;26;20052;-82
2023/11/03 16:45:58;;;;;;;8.13;4.30;;;;;;;;;;5022064;28;20048;-82
2023/11/03 16:48:30;;;;;;;9.93;3.65;;;;;;;;;;5031065;28;20466;-83
2023/11/03 16:50:58;;;;;;;5.30;3.17;;;;;;;;;;5045143;28;20045;-82
2023/11/03 16:53:26;;;;;;;12.77;4.82;;;;;;;;;;5045030;28;20053;-82
2023/11/03 16:55:54;;;;;;;6.00;4.22;;;;;;;;;;5009149;28;20048;-82
2023/11/03 16:58:22;;;;;;;7.57;5.72;;;;;;;;;;5030998;28;20056;-82
2023/11/03 17:00:51;;;;;;;8.85;4.03;;;;;;;;;;5031361;28;20064;-82
2023/11/03 17:03:21;;;;;;;5.53;3.40;;;;;;;;;;5048066;28;20045;-82
2023/11/03 17:05:49;;;;;;;9.95;4.05;;;;;;;;;;5016457;28;20044;-82
2023/11/03 17:08:17;;;;;;;3.95;3.05;;;;;;;;;;5048046;28;20045;-83
2023/11/03 17:10:45;;;;;;;10.88;3.55;;;;;;;;;;5032146;28;20076;-83
2023/11/03 17:13:13;;;;;;;5.70;4.28;;;;;;;;;;5032164;28;20048;-82